createdAt,value
2018-12-19T00:02:13.657Z,99660.74
2018-12-19T00:04:43.260Z,99652.97
2018-12-19T00:07:13.491Z,99647.64
2018-12-19T00:09:43.527Z,99628.88
2018-12-19T00:12:14.113Z,99628.39
2018-12-19T00:14:43.960Z,99620.30
2018-12-19T00:17:13.542Z,99618.67
2018-12-19T00:19:43.156Z,99610.91
2018-12-19T00:22:13.434Z,99610.91
2018-12-19T00:24:44.521Z,99599.60
2018-12-19T00:27:14.533Z,99592.33
2018-12-19T00:29:44.320Z,99592.47
2018-12-19T00:32:14.380Z,99584.56
2018-12-19T00:34:44.491Z,99576.33
2018-12-19T00:37:15.199Z,99574.56
2018-12-19T00:39:44.974Z,99576.66
2018-12-19T00:42:15.391Z,99576.82
2018-12-19T00:44:45.138Z,99586.34
2018-12-19T00:47:15.060Z,99587.16
2018-12-19T00:49:46.167Z,99586.20
2018-12-19T00:52:16.155Z,99589.45
2018-12-19T00:54:45.985Z,99577.81
2018-12-19T00:57:16.508Z,99567.47
2018-12-19T00:59:46.620Z,99560.48
2018-12-19T01:02:16.215Z,99557.42
2018-12-19T01:04:48.188Z,99555.64
2018-12-19T01:07:17.650Z,99552.91
2018-12-19T01:09:47.516Z,99555.50
2018-12-19T01:12:17.429Z,99550.17
2018-12-19T01:14:47.119Z,99547.59
2018-12-19T01:17:16.791Z,99552.91
2018-12-19T01:19:47.066Z,99552.91
2018-12-19T01:22:16.965Z,99552.77
2018-12-19T01:24:46.590Z,99553.73
2018-12-19T01:27:16.762Z,99559.38
2018-12-19T01:29:48.332Z,99554.05
2018-12-19T01:32:18.884Z,99549.03
2018-12-19T01:34:48.712Z,99546.77
2018-12-19T01:37:18.560Z,99552.28
2018-12-19T01:39:48.348Z,99558.27
2018-12-19T01:42:18.416Z,99552.95
2018-12-19T01:44:47.929Z,99551.84
2018-12-19T01:47:17.731Z,99549.61
2018-12-19T01:49:47.753Z,99548.80
2018-12-19T01:52:17.315Z,99540.88
2018-12-19T01:54:47.883Z,99413.84
2018-12-19T01:57:17.979Z,99541.24
2018-12-19T01:59:47.831Z,99538.50
2018-12-19T02:02:19.299Z,99534.13
2018-12-19T02:04:49.705Z,99530.08
2018-12-19T02:07:19.212Z,99518.75
2018-12-19T02:09:49.063Z,99508.38
2018-12-19T02:12:19.052Z,99510.97
2018-12-19T02:14:48.805Z,99500.28
2018-12-19T02:17:18.502Z,99498.30
2018-12-19T02:19:48.455Z,99504.11
2018-12-19T02:22:18.385Z,99503.27
2018-12-19T02:24:48.248Z,99492.06
2018-12-19T02:27:18.323Z,99489.64
2018-12-19T02:29:48.146Z,99488.80
2018-12-19T02:32:18.811Z,99477.91
2018-12-19T02:34:48.926Z,99485.53
2018-12-19T02:37:18.805Z,99478.73
2018-12-19T02:39:48.866Z,99479.98
2018-12-19T02:42:19.385Z,99471.66
2018-12-19T02:44:49.444Z,99474.38
2018-12-19T02:47:19.149Z,99466.27
2018-12-19T02:49:49.440Z,99463.16
2018-12-19T02:52:19.347Z,99455.98
2018-12-19T02:54:49.244Z,99452.74
2018-12-19T02:57:19.886Z,99451.93
2018-12-19T02:59:49.676Z,99445.41
2018-12-19T03:02:19.799Z,99448.94
2018-12-19T03:04:50.334Z,99444.72
2018-12-19T03:07:20.478Z,99448.25
2018-12-19T03:09:50.459Z,99456.20
2018-12-19T03:12:20.727Z,99459.08
2018-12-19T03:14:50.664Z,99455.79
2018-12-19T03:17:20.207Z,99456.06
2018-12-19T03:19:49.985Z,99452.89
2018-12-19T03:22:19.973Z,99450.24
2018-12-19T03:24:49.521Z,99440.77
2018-12-19T03:27:20.022Z,99443.44
2018-12-19T03:29:49.627Z,99438.30
2018-12-19T03:32:19.524Z,99433.52
2018-12-19T03:34:49.344Z,99424.73
2018-12-19T03:37:19.009Z,99423.70
2018-12-19T03:39:50.391Z,99420.64
2018-12-19T03:42:20.838Z,99424.58
2018-12-19T03:44:50.476Z,99425.37
2018-12-19T03:47:20.142Z,99417.03
2018-12-19T03:49:50.712Z,99423.30
2018-12-19T03:52:20.905Z,99415.59
2018-12-19T03:54:50.554Z,99408.37
2018-12-19T03:57:21.141Z,99402.61
2018-12-19T03:59:51.362Z,99398.37
2018-12-19T04:02:21.443Z,99386.46
2018-12-19T04:04:51.561Z,99392.61
2018-12-19T04:07:21.238Z,99311.06
2018-12-19T04:09:57.490Z,99398.48
2018-12-19T04:12:23.277Z,99395.77
2018-12-19T04:14:52.782Z,99390.13
2018-12-19T04:17:22.734Z,99391.76
2018-12-19T04:19:52.317Z,99396.27
2018-12-19T04:22:22.696Z,99218.64
2018-12-19T04:24:52.748Z,99378.44
2018-12-19T04:27:22.498Z,99369.47
2018-12-19T04:29:52.587Z,99379.00
2018-12-19T04:32:22.501Z,99395.56
2018-12-19T04:34:52.212Z,99390.96
2018-12-19T04:37:22.269Z,99395.81
2018-12-19T04:39:53.989Z,99384.91
2018-12-19T04:42:24.098Z,99379.39
2018-12-19T04:44:55.146Z,99389.87
2018-12-19T04:47:24.886Z,99359.31
2018-12-19T04:49:54.439Z,99388.32
2018-12-19T04:52:24.248Z,99376.47
2018-12-19T04:54:53.986Z,99384.23
2018-12-19T04:57:23.450Z,99386.31
2018-12-19T04:59:53.381Z,99393.95
2018-12-19T05:02:23.414Z,99395.00
2018-12-19T05:04:53.220Z,99390.29
2018-12-19T05:07:23.692Z,99344.37
2018-12-19T05:09:53.386Z,99387.02
2018-12-19T05:12:24.335Z,99379.50
2018-12-19T05:14:53.868Z,99392.16
2018-12-19T05:17:23.988Z,99406.78
2018-12-19T05:19:54.964Z,99407.34
2018-12-19T05:22:25.018Z,99400.59
2018-12-19T05:24:55.038Z,99401.64
2018-12-19T05:27:25.397Z,99403.69
2018-12-19T05:29:55.702Z,99309.08
2018-12-19T05:32:26.497Z,99401.47
2018-12-19T05:34:56.776Z,99400.41
2018-12-19T05:37:26.395Z,99412.41
2018-12-19T05:39:56.065Z,99419.48
2018-12-19T05:42:26.497Z,99418.64
2018-12-19T05:44:57.374Z,99421.73
2018-12-19T05:47:28.704Z,99429.34
2018-12-19T05:49:58.919Z,99426.48
2018-12-19T05:52:29.378Z,99419.42
2018-12-19T05:54:59.894Z,99417.20
2018-12-19T05:57:29.838Z,99416.95
2018-12-19T05:59:59.708Z,99426.06
2018-12-19T06:02:29.473Z,99426.70
2018-12-19T06:05:00.175Z,99419.88
2018-12-19T06:07:29.687Z,99413.92
2018-12-19T06:10:01.059Z,99411.11
2018-12-19T06:12:31.504Z,99414.59
2018-12-19T06:15:01.404Z,99418.88
2018-12-19T06:17:31.023Z,99413.19
2018-12-19T06:20:01.483Z,99408.26
2018-12-19T06:22:31.070Z,99412.44
2018-12-19T06:25:00.907Z,99409.27
2018-12-19T06:27:30.573Z,99402.86
2018-12-19T06:31:03.415Z,99405.78
2018-12-19T06:33:34.011Z,99402.75
2018-12-19T06:36:03.532Z,99407.14
2018-12-19T06:38:33.252Z,99408.52
2018-12-19T06:41:03.015Z,99402.92
2018-12-19T06:43:32.523Z,99409.19
2018-12-19T06:46:03.839Z,99407.52
2018-12-19T06:48:33.472Z,99411.29
2018-12-19T06:51:03.018Z,99407.46
2018-12-19T06:53:32.524Z,99413.42
2018-12-19T06:56:03.152Z,99418.94
2018-12-19T06:58:32.550Z,99420.84
2018-12-19T07:01:02.412Z,99422.09
2018-12-19T07:03:33.319Z,99430.34
2018-12-19T07:06:03.090Z,99432.45
2018-12-19T07:08:32.848Z,99446.77
2018-12-19T07:11:03.239Z,99442.05
2018-12-19T07:13:33.056Z,99447.77
2018-12-19T07:16:02.732Z,99436.42
2018-12-19T07:18:32.676Z,99431.38
2018-12-19T07:21:03.037Z,99333.70
2018-12-19T07:23:32.577Z,99428.98
2018-12-19T07:26:03.106Z,99434.48
2018-12-19T07:28:32.825Z,99443.50
2018-12-19T07:31:02.984Z,99440.83
2018-12-19T07:33:32.851Z,99435.13
2018-12-19T07:36:02.567Z,99448.82
2018-12-19T07:38:32.013Z,99442.94
2018-12-19T07:41:01.846Z,99436.79
2018-12-19T07:43:31.716Z,99444.22
2018-12-19T07:46:01.161Z,99449.42
2018-12-19T07:48:31.455Z,99449.70
2018-12-19T07:51:00.957Z,99444.84
2018-12-19T07:53:30.914Z,99446.08
2018-12-19T07:56:00.819Z,99443.47
2018-12-19T07:58:30.428Z,99437.64
2018-12-19T08:00:59.810Z,99437.08
2018-12-19T08:03:29.914Z,99433.06
2018-12-19T08:05:59.927Z,99441.05
2018-12-19T08:08:29.506Z,99435.67
2018-12-19T08:10:59.172Z,99438.72
2018-12-19T08:13:29.186Z,99436.92
2018-12-19T08:15:58.675Z,99437.28
2018-12-19T08:18:28.794Z,99439.89
2018-12-19T08:20:58.512Z,99436.97
2018-12-19T08:23:28.414Z,99428.23
2018-12-19T08:25:58.718Z,99431.95
2018-12-19T08:28:28.145Z,99416.14
2018-12-19T08:30:57.510Z,99412.59
2018-12-19T08:33:27.334Z,99420.09
2018-12-19T08:35:57.160Z,99421.71
2018-12-19T08:38:28.516Z,99430.22
2018-12-19T08:40:59.039Z,99425.92
2018-12-19T08:43:29.428Z,99415.63
2018-12-19T08:45:59.272Z,99417.56
2018-12-19T08:48:28.987Z,99431.50
2018-12-19T08:50:59.425Z,99427.78
2018-12-19T08:53:29.028Z,99424.65
2018-12-19T08:55:58.762Z,99422.80
2018-12-19T08:58:28.544Z,99436.50
2018-12-19T09:00:58.964Z,99449.93
2018-12-19T09:03:32.104Z,99461.58
2018-12-19T09:06:01.674Z,99450.34
2018-12-19T09:08:31.513Z,99454.39
2018-12-19T09:11:05.636Z,99454.13
2018-12-19T09:13:32.997Z,99455.92
2018-12-19T09:16:02.815Z,99441.69
2018-12-19T09:18:33.400Z,99379.91
2018-12-19T09:21:02.930Z,99457.66
2018-12-19T09:23:32.495Z,99460.27
2018-12-19T09:26:02.373Z,99460.90
2018-12-19T09:28:31.783Z,99456.53
2018-12-19T09:31:01.589Z,99459.95
2018-12-19T09:33:32.275Z,99456.49
2018-12-19T09:36:02.026Z,99369.36
2018-12-19T09:38:31.587Z,99464.64
2018-12-19T09:41:01.518Z,99390.04
2018-12-19T09:43:31.496Z,99370.16
2018-12-19T09:46:01.401Z,99449.95
2018-12-19T09:48:31.719Z,99457.23
2018-12-19T09:51:02.432Z,99450.48
2018-12-19T09:53:32.330Z,99440.55
2018-12-19T09:56:03.135Z,99453.76
2018-12-19T09:58:34.501Z,99449.88
2018-12-19T10:01:05.992Z,99444.16
2018-12-19T10:03:36.192Z,99445.91
2018-12-19T10:06:06.205Z,99437.13
2018-12-19T10:08:36.448Z,99433.98
2018-12-19T10:11:09.343Z,99333.22
2018-12-19T10:13:38.864Z,99427.13
2018-12-19T10:16:09.949Z,99429.20
2018-12-19T10:18:40.039Z,99431.00
2018-12-19T10:21:10.291Z,99419.31
2018-12-19T10:23:40.783Z,99416.84
2018-12-19T10:26:14.304Z,99417.30
2018-12-19T10:28:44.308Z,99423.55
2018-12-19T10:31:14.439Z,99422.42
2018-12-19T10:33:45.482Z,99422.91
2018-12-19T10:36:18.358Z,99416.11
2018-12-19T10:38:48.710Z,99413.92
2018-12-19T10:41:25.313Z,99340.62
2018-12-19T10:43:56.364Z,99404.66
2018-12-19T10:46:27.278Z,99401.33
2018-12-19T10:48:59.330Z,99400.73
2018-12-19T10:51:29.657Z,99406.55
2018-12-19T10:54:02.491Z,99403.84
2018-12-19T10:56:33.791Z,99391.13
2018-12-19T10:59:06.075Z,99392.45
2018-12-19T11:01:43.608Z,99394.19
2018-12-19T11:04:15.155Z,99387.70
2018-12-19T11:06:45.171Z,99380.52
2018-12-19T11:09:17.874Z,99388.13
2018-12-19T11:11:53.122Z,99385.05
2018-12-19T11:14:28.582Z,99389.44
2018-12-19T11:17:04.162Z,99373.01
2018-12-19T11:19:34.730Z,99379.38
2018-12-19T11:22:12.789Z,99369.21
2018-12-19T11:24:46.723Z,99381.11
2018-12-19T11:27:16.717Z,99380.53
2018-12-19T11:29:48.545Z,99377.83
2018-12-19T11:32:20.631Z,99373.10
2018-12-19T11:34:53.188Z,99374.63
2018-12-19T11:37:26.433Z,99363.78
2018-12-19T11:39:56.625Z,99371.84
2018-12-19T11:42:26.580Z,99368.11
2018-12-19T11:44:57.109Z,99303.26
2018-12-19T11:47:30.385Z,99377.47
2018-12-19T11:49:59.903Z,99372.91
2018-12-19T11:52:31.946Z,99368.63
2018-12-19T11:55:07.305Z,99365.22
2018-12-19T11:57:37.586Z,99371.03
2018-12-19T12:00:16.336Z,99371.23
2018-12-19T12:02:50.825Z,99369.72
2018-12-19T12:05:24.041Z,99329.00
2018-12-19T12:07:54.115Z,99370.16
2018-12-19T12:10:26.882Z,99367.64
2018-12-19T12:12:57.166Z,99360.42
2018-12-19T12:15:27.329Z,99361.63
2018-12-19T12:17:57.548Z,99353.89
2018-12-19T12:20:27.414Z,99365.23
2018-12-19T12:22:57.957Z,99373.07
2018-12-19T12:29:35.194Z,99360.61
2018-12-19T12:32:06.132Z,99360.44
2018-12-19T12:34:36.176Z,99356.84
2018-12-19T12:37:06.618Z,99357.88
2018-12-19T12:39:36.182Z,99361.08
2018-12-19T12:42:06.463Z,99361.49
2018-12-19T12:44:36.474Z,99352.23
2018-12-19T12:47:13.045Z,99351.44
2018-12-19T12:49:49.025Z,99360.56
2018-12-19T12:52:18.715Z,99355.52
2018-12-19T12:54:54.744Z,99355.13
2018-12-19T12:57:27.751Z,99361.06
2018-12-19T13:00:00.279Z,99363.36
2018-12-19T13:02:33.012Z,99356.75
2018-12-19T13:05:15.412Z,99361.66
2018-12-19T13:07:52.080Z,99358.41
2018-12-19T13:10:23.948Z,99360.13
2018-12-19T13:12:58.941Z,99357.83
2018-12-19T13:18:21.831Z,99349.29
2018-12-19T13:21:12.741Z,99350.98
2018-12-19T13:24:02.788Z,99350.86
2018-12-19T13:26:33.525Z,99348.05
2018-12-19T13:29:05.870Z,99349.55
2018-12-19T13:31:45.246Z,99352.65
2018-12-19T13:34:20.941Z,99346.83
2018-12-19T13:36:56.142Z,99360.31
2018-12-19T13:39:35.622Z,99294.18
2018-12-19T13:42:06.238Z,99355.63
2018-12-19T13:44:36.810Z,99362.23
2018-12-19T13:47:07.245Z,99360.44
2018-12-19T13:49:38.543Z,99350.86
2018-12-19T13:52:11.485Z,99365.02
2018-12-19T13:54:46.465Z,99363.63
2018-12-19T13:57:21.846Z,99363.91
2018-12-19T13:59:59.472Z,99364.05
2018-12-19T14:02:38.675Z,99347.98
2018-12-19T14:05:12.899Z,99347.20
2018-12-19T14:07:44.094Z,99339.97
2018-12-19T14:10:17.524Z,99337.07
2018-12-19T14:12:49.968Z,99335.25
2018-12-19T14:15:22.300Z,99341.80
2018-12-19T14:17:55.644Z,99335.36
2018-12-19T14:20:27.336Z,99346.14
2018-12-19T14:22:59.537Z,99346.50
2018-12-19T14:25:31.670Z,99353.31
2018-12-19T14:28:04.419Z,99343.70
2018-12-19T14:30:38.132Z,99344.41
2018-12-19T14:33:09.465Z,99342.89
2018-12-19T14:35:41.459Z,99342.59
2018-12-19T14:38:15.626Z,99342.15
2018-12-19T14:40:48.321Z,99351.45
2018-12-19T14:43:21.019Z,99355.22
2018-12-19T14:45:52.022Z,99354.81
2018-12-19T14:48:23.133Z,99346.52
2018-12-19T14:50:57.053Z,99347.88
2018-12-19T14:53:31.290Z,99360.92
2018-12-19T14:56:01.746Z,99357.46
2018-12-19T14:58:35.655Z,99364.56
2018-12-19T15:01:07.092Z,99368.61
2018-12-19T15:03:37.802Z,99368.48
2018-12-19T15:06:09.516Z,99354.41
2018-12-19T15:08:41.398Z,99351.84
2018-12-19T15:11:12.996Z,99345.64
2018-12-19T15:13:43.603Z,99355.34
2018-12-19T15:16:16.886Z,99346.99
2018-12-19T15:18:47.661Z,99342.15
2018-12-19T15:21:22.614Z,99332.13
2018-12-19T15:23:54.785Z,99322.69
2018-12-19T15:26:25.684Z,99330.37
2018-12-19T15:28:59.949Z,99347.48
2018-12-19T15:31:30.719Z,99346.86
2018-12-19T15:34:01.858Z,99347.36
2018-12-19T15:36:37.814Z,99342.91
2018-12-19T15:39:12.710Z,99344.03
2018-12-19T15:41:45.937Z,99346.95
2018-12-19T15:44:17.171Z,99350.05
2018-12-19T15:46:50.362Z,99345.70
2018-12-19T15:49:21.910Z,99344.39
2018-12-19T15:51:54.194Z,99336.79
2018-12-19T15:54:28.146Z,99327.95
2018-12-19T15:57:01.352Z,99328.34
2018-12-19T15:59:34.284Z,99333.86
2018-12-19T16:02:06.805Z,99330.31
2018-12-19T16:04:37.571Z,99323.98
2018-12-19T16:07:08.273Z,99335.84
2018-12-19T16:09:40.036Z,99338.31
2018-12-19T16:12:12.042Z,99339.45
2018-12-19T16:14:43.608Z,99337.42
2018-12-19T16:17:15.588Z,99336.80
2018-12-19T16:19:46.927Z,99326.38
2018-12-19T16:22:18.541Z,99321.50
2018-12-19T16:24:49.090Z,99320.38
2018-12-19T16:27:19.299Z,99322.85
2018-12-19T16:29:50.352Z,99334.25
2018-12-19T16:32:22.389Z,99349.45
2018-12-19T16:34:54.233Z,99345.97
2018-12-19T16:37:25.426Z,99343.73
2018-12-19T16:39:56.624Z,99343.13
2018-12-19T16:42:27.313Z,99334.61
2018-12-19T16:44:57.343Z,99337.42
2018-12-19T16:47:27.082Z,99333.44
2018-12-19T16:50:06.893Z,99252.23
2018-12-19T16:52:43.148Z,99343.38
2018-12-19T16:55:21.276Z,99343.30
2018-12-19T16:57:52.824Z,99333.05
2018-12-19T17:00:23.323Z,99334.40
2018-12-19T17:02:53.568Z,99338.58
2018-12-19T17:05:24.634Z,99350.13
2018-12-19T17:07:55.963Z,99349.51
2018-12-19T17:10:26.184Z,99350.41
2018-12-19T17:12:56.540Z,99350.05
2018-12-19T17:15:26.794Z,99347.05
2018-12-19T17:17:56.982Z,99348.21
2018-12-19T17:20:27.914Z,99345.42
2018-12-19T17:22:57.875Z,99343.31
2018-12-19T17:25:28.254Z,99343.80
2018-12-19T17:27:58.019Z,99353.66
2018-12-19T17:30:30.688Z,99347.31
2018-12-19T17:33:03.455Z,99346.24
2018-12-19T17:35:34.346Z,99350.91
2018-12-19T17:38:04.886Z,99344.67
2018-12-19T17:40:36.879Z,99344.52
2018-12-19T17:43:06.898Z,99345.23
2018-12-19T17:45:38.015Z,99349.37
2018-12-19T17:48:08.860Z,99347.97
2018-12-19T17:50:39.780Z,99346.55
2018-12-19T17:53:11.081Z,99348.88
2018-12-19T17:55:41.558Z,99345.77
2018-12-19T17:58:11.097Z,99253.11
2018-12-19T18:00:41.086Z,99351.11
2018-12-19T18:03:11.668Z,99340.99
2018-12-19T18:05:42.001Z,99338.70
2018-12-19T18:08:11.632Z,99335.69
2018-12-19T18:10:42.735Z,99336.62
2018-12-19T18:13:13.945Z,99338.48
2018-12-19T18:15:44.049Z,99336.46
2018-12-19T18:18:14.157Z,99343.63
2018-12-19T18:20:44.095Z,99344.31
2018-12-19T18:23:15.887Z,99351.18
2018-12-19T18:25:46.591Z,99349.97
2018-12-19T18:28:17.351Z,99351.77
2018-12-19T18:30:47.150Z,99348.59
2018-12-19T18:33:19.540Z,99347.80
2018-12-19T18:35:49.007Z,99349.69
2018-12-19T18:38:21.990Z,99344.59
2018-12-19T18:40:52.404Z,99339.19
2018-12-19T18:43:24.371Z,99241.36
2018-12-19T18:45:54.211Z,99332.17
2018-12-19T18:48:24.174Z,99337.38
2018-12-19T18:50:54.316Z,99333.78
2018-12-19T18:53:23.956Z,99336.32
2018-12-19T18:55:55.967Z,99334.70
2018-12-19T18:58:26.103Z,99335.11
2018-12-19T19:00:59.958Z,99337.22
2018-12-19T19:03:32.316Z,99333.61
2018-12-19T19:06:03.975Z,99323.08
2018-12-19T19:08:33.733Z,99328.44
2018-12-19T19:11:07.345Z,99316.28
2018-12-19T19:13:37.139Z,99322.41
2018-12-19T19:16:08.323Z,99319.08
2018-12-19T19:18:42.867Z,99307.14
2018-12-19T19:21:12.601Z,99310.06
2018-12-19T19:23:43.557Z,99306.95
2018-12-19T19:26:13.483Z,99312.26
2018-12-19T19:28:43.019Z,99302.09
2018-12-19T19:31:14.261Z,99301.88
2018-12-19T19:33:43.866Z,99287.02
2018-12-19T19:36:15.310Z,99297.68
2018-12-19T19:38:45.820Z,99297.97
2018-12-19T19:41:16.244Z,99294.03
2018-12-19T19:43:46.140Z,99295.31
2018-12-19T19:46:18.349Z,99301.81
2018-12-19T19:48:50.746Z,99309.70
2018-12-19T19:51:21.698Z,99302.94
2018-12-19T19:53:51.704Z,99301.44
2018-12-19T19:56:21.677Z,99305.21
2018-12-19T19:58:53.012Z,99297.08
2018-12-19T20:01:25.854Z,99302.16
2018-12-19T20:03:58.493Z,99305.89
2018-12-19T20:06:32.231Z,99299.34
2018-12-19T20:09:02.392Z,99288.56
2018-12-19T20:11:32.043Z,99291.14
2018-12-19T20:14:03.176Z,99286.17
2018-12-19T20:16:40.132Z,99281.62
2018-12-19T20:19:11.404Z,99287.41
2018-12-19T20:21:41.207Z,99279.05
2018-12-19T20:24:12.189Z,99276.80
2018-12-19T20:26:42.359Z,99269.64
2018-12-19T20:29:12.558Z,99273.10
2018-12-19T20:31:45.541Z,99267.48
2018-12-19T20:34:19.357Z,99263.83
2018-12-19T20:36:53.558Z,99257.43
2018-12-19T20:39:28.019Z,99260.09
2018-12-19T20:41:59.096Z,99256.58
2018-12-19T20:44:29.287Z,99255.09
2018-12-19T20:47:03.455Z,99259.09
2018-12-19T20:49:34.731Z,99259.83
2018-12-19T20:52:05.047Z,99262.67
2018-12-19T20:54:36.946Z,99268.09
2018-12-19T20:57:06.900Z,99265.80
2018-12-19T20:59:37.468Z,99265.41
2018-12-19T21:02:08.499Z,99264.73
2018-12-19T21:04:39.238Z,99266.21
2018-12-19T21:07:12.711Z,99266.57
2018-12-19T21:09:45.274Z,99267.52
2018-12-19T21:12:17.502Z,99266.34
2018-12-19T21:14:47.622Z,99270.92
2018-12-19T21:17:27.466Z,99270.53
2018-12-19T21:20:00.817Z,99269.85
2018-12-19T21:22:32.726Z,99268.68
2018-12-19T21:25:04.710Z,99269.77
2018-12-19T21:27:41.132Z,99269.54
2018-12-19T21:30:13.305Z,99269.94
2018-12-19T21:32:50.348Z,99269.44
2018-12-19T21:35:24.498Z,99266.75
2018-12-19T21:37:54.594Z,99262.54
2018-12-19T21:40:26.889Z,99270.03
2018-12-19T21:42:58.772Z,99256.84
2018-12-19T21:45:30.616Z,99264.47
2018-12-19T21:48:03.574Z,99265.95
2018-12-19T21:50:36.115Z,99269.67
2018-12-19T21:53:07.468Z,99271.55
2018-12-19T21:55:37.963Z,99269.48
2018-12-19T21:58:07.594Z,99277.87
2018-12-19T22:00:41.928Z,99171.61
2018-12-19T22:03:14.680Z,99287.39
2018-12-19T22:05:52.103Z,99285.55
2018-12-19T22:08:23.795Z,99290.55
2018-12-19T22:10:55.251Z,99292.66
2018-12-19T22:13:25.690Z,99292.73
2018-12-19T22:15:59.440Z,99298.36
2018-12-19T22:18:35.623Z,99297.86
2018-12-19T22:21:10.795Z,99295.08
2018-12-19T22:23:43.424Z,99290.00
2018-12-19T22:26:15.058Z,99292.22
2018-12-19T22:28:46.806Z,99285.52
2018-12-19T22:31:18.370Z,99287.45
2018-12-19T22:33:51.284Z,99282.24
2018-12-19T22:36:24.907Z,99284.48
2018-12-19T22:38:55.248Z,99274.75
2018-12-19T22:41:32.087Z,99277.61
2018-12-19T22:44:07.821Z,99278.98
2018-12-19T22:46:34.506Z,99275.94
2018-12-19T22:49:05.170Z,99271.30
2018-12-19T22:51:35.752Z,99178.30
2018-12-19T22:54:06.078Z,99278.45
2018-12-19T22:56:36.779Z,99279.31
2018-12-19T22:59:07.456Z,99275.41
2018-12-19T23:01:44.696Z,99278.08
2018-12-19T23:04:15.454Z,99272.88
2018-12-19T23:06:46.548Z,99277.91
2018-12-19T23:09:17.924Z,99277.91
2018-12-19T23:11:50.162Z,99281.23
2018-12-19T23:14:21.460Z,99286.69
2018-12-19T23:16:53.891Z,99283.20
2018-12-19T23:19:24.998Z,99278.63
2018-12-19T23:21:57.084Z,99274.05
2018-12-19T23:24:28.188Z,99278.19
2018-12-19T23:26:59.973Z,99279.41
2018-12-19T23:29:30.729Z,99287.84
2018-12-19T23:32:01.639Z,99289.14
2018-12-19T23:34:32.812Z,99288.08
2018-12-19T23:37:03.283Z,99285.70
2018-12-19T23:39:35.622Z,99272.64
2018-12-19T23:42:09.800Z,99281.17
2018-12-19T23:44:39.673Z,99281.02
2018-12-19T23:47:09.657Z,99278.53
2018-12-19T23:49:40.538Z,99283.34
2018-12-19T23:52:12.366Z,99282.98
2018-12-19T23:54:42.075Z,99280.20
2018-12-19T23:57:12.217Z,99273.87
2018-12-19T23:59:42.510Z,99277.19
